Archimede — IXZR — position and weather

sailwx.info

Track history (hours):
 
Tides and Currents Weather Stations Pressure Air Temp Water Temp Dewpoint Dewpoint Depression Visibility Wind Speed Wind Dir Waves Ship Positions

Archimede

Last reported at 2015-Jan-11 16:33 UTC. Time now 2015-Jan-28 14:19 UTC.
Position N 38°13' E 015°38'.
Warning: this ship's position is 16 days out of date.

; draft 3.1 m.

Type: Passenger vessel. MMSI: 247054700.

Date/timePositionNaut miles runAvg speedWind from/ knotsBaromVisibWave heightAir tempDewpointWater temp
2015-Jan-11 16:33N 38°13' E 015°38'1 0.9
2015-Jan-11 15:29N 38°14' E 015°37'0 0.3
2015-Jan-11 14:06N 38°14' E 015°36'1 0.9
2015-Jan-11 12:33N 38°13' E 015°38'1 0.9
2015-Jan-11 11:26N 38°13' E 015°37'1 0.3
2015-Jan-11 09:33N 38°13' E 015°37'0 0.5
2015-Jan-11 08:33N 38°13' E 015°38'1 1.1
2015-Jan-11 07:30N 38°13' E 015°37'1 0.1
2015-Jan-10 16:29N 38°13' E 015°38'0 0.0
2015-Jan-10 15:19N 38°13' E 015°38'1 0.6
2015-Jan-10 14:05N 38°13' E 015°37'1 0.5
2015-Jan-10 12:27N 38°13' E 015°38'1 1.2
2015-Jan-10 11:33N 38°14' E 015°37'1 0.4
2015-Jan-10 08:32N 38°13' E 015°38'0 0.0
2015-Jan-10 07:23N 38°13' E 015°38'2 0.1
2015-Jan-09 18:11N 38°13' E 015°36'2 0.9
2015-Jan-09 16:33N 38°13' E 015°38'1 0.7
2015-Jan-09 15:27N 38°13' E 015°37'1 0.5
2015-Jan-09 14:06N 38°14' E 015°38'0 0.2
2015-Jan-09 12:33N 38°13' E 015°38'1 1.1
2015-Jan-09 11:28N 38°13' E 015°36'1 0.4
2015-Jan-09 09:33N 38°13' E 015°37'0 0.5
2015-Jan-09 08:33N 38°13' E 015°38'0 0.1
2015-Jan-09 07:26N 38°13' E 015°38'0 0.0
2015-Jan-08 18:04N 38°14' E 015°38'3 4.3
2015-Jan-08 17:26N 38°13' E 015°34'3 3.4
2015-Jan-08 16:34N 38°13' E 015°38'1 1.3
2015-Jan-08 15:33N 38°13' E 015°36'0 0.3
2015-Jan-08 14:07N 38°14' E 015°37'1 0.6
2015-Jan-08 12:33N 38°13' E 015°38'0 0.3
2015-Jan-08 11:24N 38°14' E 015°38'3 2.4
2015-Jan-08 10:08N 38°13' E 015°34'3 5.5
2015-Jan-08 09:33N 38°13' E 015°38'0 0.0
2015-Jan-08 08:34N 38°13' E 015°38'1 0.7
2015-Jan-08 07:26N 38°13' E 015°37'1 0.0
2015-Jan-07 12:33N 38°13' E 015°38'0 0.4
2015-Jan-07 11:23N 38°14' E 015°37'1 0.3
2015-Jan-07 09:30N 38°13' E 015°37'1 0.6
2015-Jan-07 08:32N 38°13' E 015°38'2 1.5
2015-Jan-07 07:32N 38°13' E 015°36'2 0.1
2015-Jan-06 16:33N 38°13' E 015°38'0 0.4
2015-Jan-06 15:23N 38°14' E 015°37'0 0.2
2015-Jan-06 12:33N 38°13' E 015°38'0 0.0
2015-Jan-05 16:33N 38°13' E 015°38'0 0.5
2015-Jan-05 15:31N 38°14' E 015°37'2 1.2
2015-Jan-05 14:17N 38°13' E 015°36'2 1.1
2015-Jan-05 12:33N 38°13' E 015°38'0 0.3
2015-Jan-05 11:24N 38°13' E 015°38'0 0.1
2015-Jan-05 08:34N 38°13' E 015°38'0 0.5
2015-Jan-05 07:29N 38°14' E 015°37'1 0.3
2015-Jan-05 05:14N 38°14' E 015°37'2 1.6
2015-Jan-05 04:04N 38°13' E 015°34'3 5.7
2015-Jan-05 03:33N 38°13' E 015°38'0 0.2
2015-Jan-05 02:23N 38°14' E 015°38'0 0.1
2015-Jan-05 01:04N 38°14' E 015°38'1 2.8
2015-Jan-05 00:33N 38°12' E 015°36'2 1.5
2015-Jan-04 23:34N 38°13' E 015°38'0 0.2
2015-Jan-04 22:24N 38°13' E 015°38'0 0.2
2015-Jan-04 21:10N 38°14' E 015°37'0 0.1
2015-Jan-04 18:15N 38°13' E 015°37'1 0.5
2015-Jan-04 16:33N 38°13' E 015°38'0 0.0
2015-Jan-04 15:30N 38°13' E 015°38'0 0.0
2015-Jan-04 14:05N 38°13' E 015°38'0 0.0
2015-Jan-04 12:33N 38°13' E 015°38'0 0.3
2015-Jan-04 11:16N 38°14' E 015°37'1 0.5
2015-Jan-04 09:32N 38°13' E 015°37'1 1.0
2015-Jan-04 08:33N 38°13' E 015°38'1 0.9
2015-Jan-04 07:27N 38°13' E 015°37'1 0.1
2015-Jan-03 18:26N 38°13' E 015°35'1 0.6
2015-Jan-03 17:15N 38°13' E 015°34'3 3.8
2015-Jan-03 16:33N 38°13' E 015°38'1 0.8
2015-Jan-03 15:33N 38°13' E 015°37'1 0.8
2015-Jan-03 14:13N 38°13' E 015°36'2 3.0
2015-Jan-03 13:33N 38°13' E 015°38'0 0.4
2015-Jan-03 12:33N 38°14' E 015°38'1 1.2
2015-Jan-03 11:29N 38°13' E 015°36'1 1.0
2015-Jan-03 10:08N 38°13' E 015°34'1 2.2
2015-Jan-03 09:30N 38°12' E 015°36'2 1.9
2015-Jan-03 08:34N 38°13' E 015°38'2 1.5
2015-Jan-03 07:31N 38°13' E 015°36'0 0.0
2015-Jan-02 18:14N 38°13' E 015°36'1 1.0
2015-Jan-02 17:32N 38°12' E 015°36'2 1.8
2015-Jan-02 16:33N 38°13' E 015°38'1 0.9
2015-Jan-02 15:29N 38°14' E 015°37'1 0.3
2015-Jan-02 12:33N 38°13' E 015°38'1 1.4
2015-Jan-02 11:31N 38°13' E 015°36'1 0.1
2015-Jan-02 05:08N 38°13' E 015°37'1 0.5
2015-Jan-02 03:33N 38°13' E 015°38'0 0.2
2015-Jan-02 02:24N 38°14' E 015°38'0 0.1
2015-Jan-01 23:31N 38°13' E 015°38'0 0.3
2015-Jan-01 22:24N 38°14' E 015°38'1 1.1
2015-Jan-01 21:12N 38°13' E 015°36'  
Track history (hours):
 
Tides and Currents Weather Stations Pressure Air Temp Water Temp Dewpoint Dewpoint Depression Visibility Wind Speed Wind Dir Waves Ship Positions

Archimede

Last reported at 2015-Jan-11 16:33 UTC. Time now 2015-Jan-28 14:19 UTC.
Position N 38°13' E 015°38'.
Warning: this ship's position is 16 days out of date.

; draft 3.1 m.

Type: Passenger vessel. MMSI: 247054700.

Date/timePositionNaut miles runAvg speedWind from/ knotsBaromVisibWave heightAir tempDewpointWater temp
2015-Jan-11 16:33N 38°13' E 015°38'1 0.9
2015-Jan-11 15:29N 38°14' E 015°37'0 0.3
2015-Jan-11 14:06N 38°14' E 015°36'1 0.9
2015-Jan-11 12:33N 38°13' E 015°38'1 0.9
2015-Jan-11 11:26N 38°13' E 015°37'1 0.3
2015-Jan-11 09:33N 38°13' E 015°37'0 0.5
2015-Jan-11 08:33N 38°13' E 015°38'1 1.1
2015-Jan-11 07:30N 38°13' E 015°37'1 0.1
2015-Jan-10 16:29N 38°13' E 015°38'0 0.0
2015-Jan-10 15:19N 38°13' E 015°38'1 0.6
2015-Jan-10 14:05N 38°13' E 015°37'1 0.5
2015-Jan-10 12:27N 38°13' E 015°38'1 1.2
2015-Jan-10 11:33N 38°14' E 015°37'1 0.4
2015-Jan-10 08:32N 38°13' E 015°38'0 0.0
2015-Jan-10 07:23N 38°13' E 015°38'2 0.1
2015-Jan-09 18:11N 38°13' E 015°36'2 0.9
2015-Jan-09 16:33N 38°13' E 015°38'1 0.7
2015-Jan-09 15:27N 38°13' E 015°37'1 0.5
2015-Jan-09 14:06N 38°14' E 015°38'0 0.2
2015-Jan-09 12:33N 38°13' E 015°38'1 1.1
2015-Jan-09 11:28N 38°13' E 015°36'1 0.4
2015-Jan-09 09:33N 38°13' E 015°37'0 0.5
2015-Jan-09 08:33N 38°13' E 015°38'0 0.1
2015-Jan-09 07:26N 38°13' E 015°38'0 0.0
2015-Jan-08 18:04N 38°14' E 015°38'3 4.3
2015-Jan-08 17:26N 38°13' E 015°34'3 3.4
2015-Jan-08 16:34N 38°13' E 015°38'1 1.3
2015-Jan-08 15:33N 38°13' E 015°36'0 0.3
2015-Jan-08 14:07N 38°14' E 015°37'1 0.6
2015-Jan-08 12:33N 38°13' E 015°38'0 0.3
2015-Jan-08 11:24N 38°14' E 015°38'3 2.4
2015-Jan-08 10:08N 38°13' E 015°34'3 5.5
2015-Jan-08 09:33N 38°13' E 015°38'0 0.0
2015-Jan-08 08:34N 38°13' E 015°38'1 0.7
2015-Jan-08 07:26N 38°13' E 015°37'1 0.0
2015-Jan-07 12:33N 38°13' E 015°38'0 0.4
2015-Jan-07 11:23N 38°14' E 015°37'1 0.3
2015-Jan-07 09:30N 38°13' E 015°37'1 0.6
2015-Jan-07 08:32N 38°13' E 015°38'2 1.5
2015-Jan-07 07:32N 38°13' E 015°36'2 0.1
2015-Jan-06 16:33N 38°13' E 015°38'0 0.4
2015-Jan-06 15:23N 38°14' E 015°37'0 0.2
2015-Jan-06 12:33N 38°13' E 015°38'0 0.0
2015-Jan-05 16:33N 38°13' E 015°38'0 0.5
2015-Jan-05 15:31N 38°14' E 015°37'2 1.2
2015-Jan-05 14:17N 38°13' E 015°36'2 1.1
2015-Jan-05 12:33N 38°13' E 015°38'0 0.3
2015-Jan-05 11:24N 38°13' E 015°38'0 0.1
2015-Jan-05 08:34N 38°13' E 015°38'0 0.5
2015-Jan-05 07:29N 38°14' E 015°37'1 0.3
2015-Jan-05 05:14N 38°14' E 015°37'2 1.6
2015-Jan-05 04:04N 38°13' E 015°34'3 5.7
2015-Jan-05 03:33N 38°13' E 015°38'0 0.2
2015-Jan-05 02:23N 38°14' E 015°38'0 0.1
2015-Jan-05 01:04N 38°14' E 015°38'1 2.8
2015-Jan-05 00:33N 38°12' E 015°36'2 1.5
2015-Jan-04 23:34N 38°13' E 015°38'0 0.2
2015-Jan-04 22:24N 38°13' E 015°38'0 0.2
2015-Jan-04 21:10N 38°14' E 015°37'0 0.1
2015-Jan-04 18:15N 38°13' E 015°37'1 0.5
2015-Jan-04 16:33N 38°13' E 015°38'0 0.0
2015-Jan-04 15:30N 38°13' E 015°38'0 0.0
2015-Jan-04 14:05N 38°13' E 015°38'0 0.0
2015-Jan-04 12:33N 38°13' E 015°38'0 0.3
2015-Jan-04 11:16N 38°14' E 015°37'1 0.5
2015-Jan-04 09:32N 38°13' E 015°37'1 1.0
2015-Jan-04 08:33N 38°13' E 015°38'1 0.9
2015-Jan-04 07:27N 38°13' E 015°37'1 0.1
2015-Jan-03 18:26N 38°13' E 015°35'1 0.6
2015-Jan-03 17:15N 38°13' E 015°34'3 3.8
2015-Jan-03 16:33N 38°13' E 015°38'1 0.8
2015-Jan-03 15:33N 38°13' E 015°37'1 0.8
2015-Jan-03 14:13N 38°13' E 015°36'2 3.0
2015-Jan-03 13:33N 38°13' E 015°38'0 0.4
2015-Jan-03 12:33N 38°14' E 015°38'1 1.2
2015-Jan-03 11:29N 38°13' E 015°36'1 1.0
2015-Jan-03 10:08N 38°13' E 015°34'1 2.2
2015-Jan-03 09:30N 38°12' E 015°36'2 1.9
2015-Jan-03 08:34N 38°13' E 015°38'2 1.5
2015-Jan-03 07:31N 38°13' E 015°36'0 0.0
2015-Jan-02 18:14N 38°13' E 015°36'1 1.0
2015-Jan-02 17:32N 38°12' E 015°36'2 1.8
2015-Jan-02 16:33N 38°13' E 015°38'1 0.9
2015-Jan-02 15:29N 38°14' E 015°37'1 0.3
2015-Jan-02 12:33N 38°13' E 015°38'1 1.4
2015-Jan-02 11:31N 38°13' E 015°36'1 0.1
2015-Jan-02 05:08N 38°13' E 015°37'1 0.5
2015-Jan-02 03:33N 38°13' E 015°38'0 0.2
2015-Jan-02 02:24N 38°14' E 015°38'0 0.1
2015-Jan-01 23:31N 38°13' E 015°38'0 0.3
2015-Jan-01 22:24N 38°14' E 015°38'1 1.1
2015-Jan-01 21:12N 38°13' E 015°36'  

Dump ship's entire track history